createdAt,value
2022-09-22T00:01:36.696Z,9.40
2022-09-22T00:04:08.230Z,9.50
2022-09-22T00:06:38.777Z,9.50
2022-09-22T00:09:10.043Z,9.50
2022-09-22T00:11:40.303Z,9.40
2022-09-22T00:14:12.682Z,9.50
2022-09-22T00:16:44.834Z,9.50
2022-09-22T00:19:16.695Z,9.60
2022-09-22T00:21:45.113Z,9.60
2022-09-22T00:24:13.238Z,9.40
2022-09-22T00:26:41.399Z,9.40
2022-09-22T00:29:12.132Z,9.40
2022-09-22T00:31:42.829Z,9.30
2022-09-22T00:34:16.690Z,9.30
2022-09-22T00:36:45.352Z,9.20
2022-09-22T00:39:14.694Z,9.30
2022-09-22T00:41:45.959Z,9.20
2022-09-22T00:44:38.867Z,9.30
2022-09-22T00:47:30.662Z,9.30
2022-09-22T00:50:06.773Z,9.30
2022-09-22T00:52:39.243Z,9.20
2022-09-22T00:55:13.945Z,9.20
2022-09-22T00:57:43.690Z,9.20
2022-09-22T01:00:15.326Z,9.10
2022-09-22T01:02:46.030Z,9.10
2022-09-22T01:05:14.147Z,9.10
2022-09-22T01:07:43.043Z,9.10
2022-09-22T01:10:12.122Z,9.00
2022-09-22T01:12:48.016Z,9.00
2022-09-22T01:15:30.135Z,8.90
2022-09-22T01:18:14.252Z,9.00
2022-09-22T01:21:20.914Z,9.00
2022-09-22T01:24:47.652Z,9.00
2022-09-22T01:27:43.872Z,9.00
2022-09-22T01:30:27.223Z,9.10
2022-09-22T01:33:11.643Z,9.10
2022-09-22T01:35:52.928Z,9.10
2022-09-22T01:38:31.408Z,9.00
2022-09-22T01:41:04.045Z,8.90
2022-09-22T01:43:42.907Z,8.60
2022-09-22T01:46:18.262Z,8.60
2022-09-22T01:48:50.432Z,8.60
2022-09-22T01:51:22.824Z,8.70
2022-09-22T01:53:59.481Z,8.80
2022-09-22T01:56:31.366Z,8.70
2022-09-22T01:59:02.157Z,8.70
2022-09-22T02:01:38.005Z,8.70
2022-09-22T02:04:12.503Z,8.50
2022-09-22T02:06:48.215Z,8.60
2022-09-22T02:09:20.462Z,8.60
2022-09-22T02:11:49.458Z,8.50
2022-09-22T02:14:17.750Z,8.60
2022-09-22T02:16:47.256Z,8.50
2022-09-22T02:19:19.420Z,8.50
2022-09-22T02:21:49.128Z,8.50
2022-09-22T02:24:32.129Z,8.50
2022-09-22T02:27:03.729Z,8.40
2022-09-22T02:29:35.247Z,8.40
2022-09-22T02:32:10.976Z,8.40
2022-09-22T02:34:39.358Z,8.50
2022-09-22T02:37:18.354Z,8.50
2022-09-22T02:39:58.159Z,8.20
2022-09-22T02:42:30.940Z,8.20
2022-09-22T02:45:05.176Z,8.30
2022-09-22T02:47:41.708Z,8.30
2022-09-22T02:50:12.682Z,8.30
2022-09-22T02:52:41.358Z,8.10
2022-09-22T02:55:12.026Z,8.20
2022-09-22T02:57:39.979Z,8.20
2022-09-22T03:00:09.520Z,8.20
2022-09-22T03:02:38.823Z,8.30
2022-09-22T03:05:08.020Z,8.20
2022-09-22T03:07:36.080Z,8.20
2022-09-22T03:10:04.313Z,8.20
2022-09-22T03:12:32.261Z,8.10
2022-09-22T03:15:00.272Z,8.10
2022-09-22T03:17:28.357Z,8.20
2022-09-22T03:19:57.623Z,8.40
2022-09-22T03:22:25.593Z,8.40
2022-09-22T03:24:53.540Z,8.40
2022-09-22T03:27:21.574Z,8.40
2022-09-22T03:29:49.557Z,8.50
2022-09-22T03:32:17.512Z,8.40
2022-09-22T03:34:45.465Z,8.40
2022-09-22T03:37:14.795Z,8.40
2022-09-22T03:39:42.713Z,8.40
2022-09-22T03:42:11.047Z,8.40
2022-09-22T03:44:39.012Z,8.40
2022-09-22T03:47:07.214Z,8.40
2022-09-22T03:49:35.271Z,8.30
2022-09-22T03:52:03.851Z,8.00
2022-09-22T03:54:33.266Z,7.90
2022-09-22T03:57:01.222Z,8.10
2022-09-22T03:59:29.201Z,8.00
2022-09-22T04:01:58.345Z,8.10
2022-09-22T04:04:26.497Z,8.10
2022-09-22T04:06:54.590Z,8.00
2022-09-22T04:09:22.690Z,7.90
2022-09-22T04:11:52.040Z,7.90
2022-09-22T04:14:19.973Z,7.90
2022-09-22T04:16:48.037Z,8.00
2022-09-22T04:19:16.826Z,8.10
2022-09-22T04:21:45.228Z,8.10
2022-09-22T04:24:13.219Z,8.00
2022-09-22T04:26:56.377Z,7.80
2022-09-22T04:29:32.969Z,7.90
2022-09-22T04:32:00.941Z,8.00
2022-09-22T04:34:29.001Z,7.80
2022-09-22T04:36:57.011Z,7.70
2022-09-22T04:39:25.105Z,7.70
2022-09-22T04:41:53.053Z,7.80
2022-09-22T04:44:21.004Z,7.70
2022-09-22T04:46:50.607Z,7.50
2022-09-22T04:49:19.097Z,7.70
2022-09-22T04:51:47.066Z,7.60
2022-09-22T04:54:15.075Z,7.60
2022-09-22T04:56:43.325Z,7.40
2022-09-22T04:59:11.800Z,7.40
2022-09-22T05:01:39.922Z,6.90
2022-09-22T05:04:09.281Z,6.60
2022-09-22T05:06:37.367Z,6.50
2022-09-22T05:09:05.850Z,6.30
2022-09-22T05:11:34.233Z,6.30
2022-09-22T05:14:02.496Z,6.20
2022-09-22T05:16:32.455Z,6.00
2022-09-22T05:19:01.091Z,6.10
2022-09-22T05:21:30.817Z,6.50
2022-09-22T05:23:58.799Z,6.50
2022-09-22T05:26:26.917Z,6.50
2022-09-22T05:28:55.233Z,6.60
2022-09-22T05:31:23.286Z,6.70
2022-09-22T05:33:51.395Z,6.90
2022-09-22T05:36:19.390Z,7.00
2022-09-22T05:38:48.681Z,7.10
2022-09-22T05:41:16.619Z,7.20
2022-09-22T05:43:44.554Z,7.20
2022-09-22T05:46:12.503Z,7.50
2022-09-22T05:48:40.486Z,7.50
2022-09-22T05:51:08.443Z,7.70
2022-09-22T05:53:36.398Z,7.80
2022-09-22T05:56:06.434Z,7.90
2022-09-22T05:58:34.409Z,7.90
2022-09-22T06:01:04.327Z,7.90
2022-09-22T06:03:32.365Z,7.80
2022-09-22T06:06:00.346Z,7.70
2022-09-22T06:08:28.336Z,7.90
2022-09-22T06:10:56.303Z,8.00
2022-09-22T06:13:25.596Z,8.00
2022-09-22T06:15:53.556Z,7.90
2022-09-22T06:18:24.863Z,7.90
2022-09-22T06:20:56.028Z,8.00
2022-09-22T06:23:25.756Z,8.00
2022-09-22T06:25:58.834Z,8.00
2022-09-22T06:28:30.668Z,8.20
2022-09-22T06:31:02.413Z,8.20
2022-09-22T06:33:31.963Z,8.20
2022-09-22T06:36:01.644Z,8.30
2022-09-22T06:38:31.854Z,8.30
2022-09-22T06:41:01.715Z,8.40
2022-09-22T06:43:31.082Z,8.80
2022-09-22T06:46:02.632Z,9.70
2022-09-22T06:48:31.916Z,10.80
2022-09-22T06:51:00.035Z,12.00
2022-09-22T06:53:27.982Z,13.00
2022-09-22T06:55:56.015Z,13.70
2022-09-22T06:58:24.077Z,14.50
2022-09-22T07:00:53.632Z,14.80
2022-09-22T07:03:26.141Z,15.30
2022-09-22T07:05:56.342Z,15.40
2022-09-22T07:08:25.572Z,15.80
2022-09-22T07:10:55.997Z,16.30
2022-09-22T07:13:24.033Z,16.20
2022-09-22T07:15:55.278Z,16.30
2022-09-22T07:18:23.274Z,16.50
2022-09-22T07:20:51.308Z,16.50
2022-09-22T07:23:21.228Z,17.30
2022-09-22T07:25:56.320Z,17.00
2022-09-22T07:28:25.810Z,17.20
2022-09-22T07:30:57.342Z,17.40
2022-09-22T07:33:25.550Z,17.80
2022-09-22T07:36:04.704Z,18.10
2022-09-22T07:38:33.814Z,18.70
2022-09-22T07:41:02.196Z,18.60
2022-09-22T07:43:30.164Z,18.60
2022-09-22T07:45:59.507Z,18.90
2022-09-22T07:48:42.523Z,19.20
2022-09-22T07:51:16.764Z,19.90
2022-09-22T07:53:47.234Z,20.80
2022-09-22T07:56:17.494Z,20.90
2022-09-22T07:58:53.370Z,21.00
2022-09-22T08:01:27.243Z,21.20
2022-09-22T08:03:57.832Z,21.60
2022-09-22T08:06:28.304Z,22.80
2022-09-22T08:08:58.226Z,23.90
2022-09-22T08:11:28.801Z,23.40
2022-09-22T08:13:59.888Z,23.60
2022-09-22T08:16:31.593Z,23.10
2022-09-22T08:19:02.245Z,23.50
2022-09-22T08:21:35.150Z,23.10
2022-09-22T08:24:05.919Z,23.40
2022-09-22T08:26:36.529Z,23.60
2022-09-22T08:29:08.204Z,23.40
2022-09-22T08:31:41.178Z,24.50
2022-09-22T08:34:09.878Z,24.60
2022-09-22T08:36:46.099Z,23.80
2022-09-22T08:39:18.138Z,23.70
2022-09-22T08:42:01.114Z,23.90
2022-09-22T08:44:32.882Z,23.90
2022-09-22T08:47:03.432Z,24.20
2022-09-22T08:49:55.202Z,24.70
2022-09-22T08:52:34.061Z,25.30
2022-09-22T08:55:03.324Z,24.50
2022-09-22T08:57:56.422Z,24.60
2022-09-22T09:00:25.806Z,24.70
2022-09-22T09:03:11.747Z,25.40
2022-09-22T09:06:04.051Z,26.10
2022-09-22T09:09:05.041Z,25.30
2022-09-22T09:11:59.525Z,25.20
2022-09-22T09:15:16.787Z,25.40
2022-09-22T09:17:48.103Z,25.60
2022-09-22T09:20:21.644Z,24.80
2022-09-22T09:22:55.706Z,25.30
2022-09-22T09:25:31.494Z,25.10
2022-09-22T09:28:05.156Z,25.20
2022-09-22T09:30:42.914Z,26.60
2022-09-22T09:33:22.609Z,26.20
2022-09-22T09:35:53.333Z,26.10
2022-09-22T09:38:28.811Z,26.20
2022-09-22T09:41:09.249Z,25.90
2022-09-22T09:43:42.684Z,25.80
2022-09-22T09:46:23.378Z,26.10
2022-09-22T09:49:05.935Z,25.70
2022-09-22T09:51:40.144Z,25.60
2022-09-22T09:54:17.324Z,25.70
2022-09-22T09:57:07.955Z,25.50
2022-09-22T09:59:54.760Z,25.70
2022-09-22T10:02:27.358Z,25.00
2022-09-22T10:04:58.624Z,25.70
2022-09-22T10:10:35.402Z,25.20
2022-09-22T10:13:34.731Z,25.60
2022-09-22T10:16:22.725Z,26.30
2022-09-22T10:18:53.269Z,26.70
2022-09-22T10:21:23.310Z,27.50
2022-09-22T10:23:54.628Z,26.70
2022-09-22T10:26:26.781Z,26.30
2022-09-22T10:29:18.921Z,26.10
2022-09-22T10:32:10.344Z,26.20
2022-09-22T10:34:40.725Z,26.10
2022-09-22T10:37:11.995Z,26.70
2022-09-22T10:39:46.113Z,26.70
2022-09-22T10:42:32.560Z,27.00
2022-09-22T10:45:05.697Z,26.40
2022-09-22T10:47:57.498Z,26.80
2022-09-22T10:50:48.261Z,26.90
2022-09-22T10:53:36.014Z,26.50
2022-09-22T10:56:15.164Z,25.50
2022-09-22T10:59:02.929Z,25.90
2022-09-22T11:01:57.912Z,25.80
2022-09-22T11:04:51.612Z,25.70
2022-09-22T11:08:13.946Z,25.80
2022-09-22T11:11:11.547Z,26.30
2022-09-22T11:13:54.124Z,26.60
2022-09-22T11:16:51.741Z,26.20
2022-09-22T11:19:47.486Z,25.90
2022-09-22T11:22:56.466Z,25.50
2022-09-22T11:25:44.035Z,25.10
2022-09-22T11:28:32.708Z,25.20
2022-09-22T11:31:02.144Z,25.50
2022-09-22T11:34:00.668Z,25.10
2022-09-22T11:36:49.327Z,24.40
2022-09-22T11:39:39.436Z,23.90
2022-09-22T11:42:18.521Z,23.30
2022-09-22T11:44:59.849Z,22.70
2022-09-22T11:47:49.348Z,22.20
2022-09-22T11:50:37.010Z,21.70
2022-09-22T11:53:29.015Z,21.30
2022-09-22T11:56:31.354Z,20.90
2022-09-22T11:59:05.729Z,20.50
2022-09-22T12:01:40.174Z,20.40
2022-09-22T12:04:32.647Z,20.30
2022-09-22T12:07:03.855Z,20.10
2022-09-22T12:09:39.395Z,20.20
2022-09-22T12:12:11.600Z,20.00
2022-09-22T12:14:41.112Z,19.60
2022-09-22T12:17:16.788Z,19.50
2022-09-22T12:19:57.304Z,19.70
2022-09-22T12:22:31.197Z,19.80
2022-09-22T12:24:59.304Z,19.70
2022-09-22T12:27:30.096Z,19.40
2022-09-22T12:30:01.532Z,19.30
2022-09-22T12:32:37.375Z,19.40
2022-09-22T12:35:08.637Z,19.30
2022-09-22T12:37:39.679Z,19.40
2022-09-22T12:40:26.807Z,19.30
2022-09-22T12:42:55.608Z,19.10
2022-09-22T12:45:33.034Z,19.20
2022-09-22T12:48:07.088Z,19.30
2022-09-22T12:50:42.067Z,19.40
2022-09-22T12:53:26.236Z,19.30
2022-09-22T12:55:55.124Z,19.10
2022-09-22T12:58:44.570Z,19.10
2022-09-22T13:01:35.623Z,19.10
2022-09-22T13:04:19.114Z,19.10
2022-09-22T13:07:00.373Z,19.20
2022-09-22T13:09:31.699Z,19.10
2022-09-22T13:12:27.980Z,19.10
2022-09-22T13:15:16.417Z,19.20
2022-09-22T13:17:47.654Z,19.30
2022-09-22T13:20:23.889Z,19.30
2022-09-22T13:22:56.538Z,19.30
2022-09-22T13:25:28.325Z,19.40
2022-09-22T13:28:13.493Z,19.10
2022-09-22T13:30:46.993Z,19.30
2022-09-22T13:33:24.627Z,19.30
2022-09-22T13:36:03.216Z,19.10
2022-09-22T13:38:36.980Z,19.30
2022-09-22T13:41:12.034Z,19.30
2022-09-22T13:43:46.237Z,19.40
2022-09-22T13:46:23.039Z,19.50
2022-09-22T13:48:54.027Z,19.50
2022-09-22T13:51:24.849Z,19.60
2022-09-22T13:53:57.464Z,19.30
2022-09-22T13:56:27.339Z,19.20
2022-09-22T13:59:00.187Z,19.10
2022-09-22T14:01:30.960Z,19.10
2022-09-22T14:04:02.597Z,19.10
2022-09-22T14:06:35.159Z,18.90
2022-09-22T14:09:05.375Z,19.00
2022-09-22T14:11:34.175Z,18.80
2022-09-22T14:14:03.468Z,18.70
2022-09-22T14:16:36.171Z,18.90
2022-09-22T14:19:09.320Z,18.80
2022-09-22T14:21:45.698Z,18.90
2022-09-22T14:24:15.980Z,18.90
2022-09-22T14:26:49.187Z,18.90
2022-09-22T14:29:20.645Z,18.90
2022-09-22T14:31:55.319Z,18.70
2022-09-22T14:34:31.187Z,18.80
2022-09-22T14:37:01.730Z,18.80
2022-09-22T14:39:34.199Z,18.80
2022-09-22T14:42:11.929Z,18.90
2022-09-22T14:44:48.316Z,18.80
2022-09-22T14:47:28.425Z,18.80
2022-09-22T14:50:18.640Z,18.90
2022-09-22T14:53:00.986Z,18.80
2022-09-22T14:55:35.817Z,18.90
2022-09-22T14:58:07.162Z,18.70
2022-09-22T15:00:53.466Z,18.70
2022-09-22T15:03:27.554Z,18.70
2022-09-22T15:05:56.494Z,18.70
2022-09-22T15:08:28.173Z,18.70
2022-09-22T15:11:00.276Z,18.60
2022-09-22T15:13:33.118Z,18.50
2022-09-22T15:16:01.174Z,18.60
2022-09-22T15:18:31.100Z,18.70
2022-09-22T15:21:06.496Z,18.60
2022-09-22T15:23:41.033Z,18.70
2022-09-22T15:26:24.969Z,18.70
2022-09-22T15:28:55.863Z,18.70
2022-09-22T15:31:27.781Z,18.70
2022-09-22T15:33:59.374Z,18.60
2022-09-22T15:36:28.019Z,18.50
2022-09-22T15:39:00.947Z,18.40
2022-09-22T15:41:30.835Z,18.50
2022-09-22T15:43:59.209Z,18.50
2022-09-22T15:46:33.727Z,18.30
2022-09-22T15:49:06.230Z,18.30
2022-09-22T15:51:34.485Z,18.40
2022-09-22T15:54:02.445Z,18.50
2022-09-22T15:56:32.712Z,18.50
2022-09-22T15:59:02.202Z,18.30
2022-09-22T16:01:30.445Z,18.10
2022-09-22T16:04:00.069Z,18.00
2022-09-22T16:06:28.612Z,18.10
2022-09-22T16:08:58.374Z,17.90
2022-09-22T16:11:31.074Z,17.90
2022-09-22T16:14:03.408Z,17.80
2022-09-22T16:16:33.029Z,17.60
2022-09-22T16:19:01.696Z,17.40
2022-09-22T16:21:33.137Z,17.20
2022-09-22T16:24:04.113Z,17.10
2022-09-22T16:26:33.365Z,16.90
2022-09-22T16:29:03.389Z,16.80
2022-09-22T16:31:32.172Z,16.50
2022-09-22T16:34:03.442Z,16.20
2022-09-22T16:36:35.046Z,16.10
2022-09-22T16:39:04.597Z,16.10
2022-09-22T16:41:34.985Z,15.90
2022-09-22T16:44:05.416Z,15.80
2022-09-22T16:46:35.574Z,15.80
2022-09-22T16:49:07.430Z,15.80
2022-09-22T16:51:38.164Z,15.70
2022-09-22T16:54:07.948Z,15.40
2022-09-22T16:56:38.375Z,15.20
2022-09-22T16:59:08.196Z,15.00
2022-09-22T17:01:38.279Z,14.90
2022-09-22T17:04:07.928Z,14.60
2022-09-22T17:06:38.216Z,14.50
2022-09-22T17:09:08.047Z,14.60
2022-09-22T17:11:39.145Z,14.60
2022-09-22T17:14:12.771Z,14.50
2022-09-22T17:16:42.665Z,14.60
2022-09-22T17:19:15.484Z,14.60
2022-09-22T17:21:43.987Z,14.80
2022-09-22T17:24:12.041Z,14.80
2022-09-22T17:26:47.183Z,14.90
2022-09-22T17:29:17.477Z,14.60
2022-09-22T17:31:48.005Z,14.50
2022-09-22T17:34:17.119Z,14.60
2022-09-22T17:36:45.910Z,14.60
2022-09-22T17:39:14.106Z,14.60
2022-09-22T17:41:45.247Z,14.70
2022-09-22T17:44:14.623Z,14.30
2022-09-22T17:46:58.153Z,14.30
2022-09-22T17:49:43.843Z,14.30
2022-09-22T17:52:44.626Z,14.10
2022-09-22T17:55:19.093Z,14.10
2022-09-22T17:57:47.244Z,14.20
2022-09-22T18:00:19.454Z,14.00
2022-09-22T18:02:50.270Z,13.80
2022-09-22T18:05:20.869Z,13.70
2022-09-22T18:07:53.475Z,13.60
2022-09-22T18:10:23.918Z,13.50
2022-09-22T18:12:56.319Z,13.40
2022-09-22T18:15:26.086Z,13.50
2022-09-22T18:17:57.633Z,13.30
2022-09-22T18:20:27.424Z,13.40
2022-09-22T18:22:55.971Z,13.40
2022-09-22T18:25:25.381Z,13.20
2022-09-22T18:27:54.998Z,13.20
2022-09-22T18:30:22.994Z,13.10
2022-09-22T18:32:50.961Z,13.10
2022-09-22T18:35:20.502Z,12.90
2022-09-22T18:37:48.578Z,12.90
2022-09-22T18:40:18.101Z,12.80
2022-09-22T18:42:46.289Z,12.70
2022-09-22T18:45:14.563Z,12.70
2022-09-22T18:47:43.532Z,12.60
2022-09-22T18:50:13.300Z,12.50
2022-09-22T18:52:45.024Z,12.40
2022-09-22T18:55:18.842Z,12.40
2022-09-22T18:57:48.242Z,12.30
2022-09-22T19:00:20.698Z,12.30
2022-09-22T19:02:48.806Z,12.10
2022-09-22T19:05:17.095Z,12.00
2022-09-22T19:07:47.677Z,12.20
2022-09-22T19:10:21.864Z,12.10
2022-09-22T19:12:50.787Z,12.30
2022-09-22T19:15:20.007Z,12.30
2022-09-22T19:17:50.100Z,12.30
2022-09-22T19:20:23.754Z,12.00
2022-09-22T19:22:54.001Z,12.00
2022-09-22T19:25:23.240Z,12.00
2022-09-22T19:27:52.289Z,12.00
2022-09-22T19:30:23.358Z,12.00
2022-09-22T19:32:53.230Z,12.10
2022-09-22T19:35:21.944Z,11.90
2022-09-22T19:37:51.869Z,11.90
2022-09-22T19:40:25.019Z,11.90
2022-09-22T19:42:54.128Z,11.90
2022-09-22T19:45:23.714Z,12.00
2022-09-22T19:47:51.808Z,12.00
2022-09-22T19:50:20.075Z,12.00
2022-09-22T19:52:48.362Z,12.00
2022-09-22T19:55:20.760Z,12.00
2022-09-22T19:57:54.150Z,11.90
2022-09-22T20:00:25.956Z,11.90
2022-09-22T20:02:58.209Z,11.90
2022-09-22T20:05:30.038Z,11.90
2022-09-22T20:07:58.100Z,11.90
2022-09-22T20:10:26.686Z,11.80
2022-09-22T20:12:56.114Z,11.80
2022-09-22T20:15:31.263Z,11.70
2022-09-22T20:18:08.756Z,11.70
2022-09-22T20:20:38.215Z,11.80
2022-09-22T20:23:06.158Z,11.60
2022-09-22T20:25:34.536Z,11.80
2022-09-22T20:28:05.075Z,11.70
2022-09-22T20:30:33.025Z,11.70
2022-09-22T20:33:01.026Z,11.60
2022-09-22T20:35:29.000Z,11.50
2022-09-22T20:37:57.522Z,11.50
2022-09-22T20:40:26.186Z,11.50
2022-09-22T20:42:55.333Z,11.40
2022-09-22T20:45:25.149Z,11.50
2022-09-22T20:47:53.383Z,11.40
2022-09-22T20:50:22.100Z,11.30
2022-09-22T20:52:50.744Z,11.20
2022-09-22T20:55:18.932Z,11.20
2022-09-22T20:57:46.952Z,11.20
2022-09-22T21:00:16.191Z,11.20
2022-09-22T21:02:45.633Z,11.20
2022-09-22T21:05:13.638Z,11.30
2022-09-22T21:07:41.663Z,11.20
2022-09-22T21:10:27.687Z,11.20
2022-09-22T21:12:56.057Z,11.20
2022-09-22T21:15:24.195Z,11.20
2022-09-22T21:17:53.732Z,11.00
2022-09-22T21:20:22.016Z,11.00
2022-09-22T21:22:50.619Z,11.10
2022-09-22T21:25:20.094Z,11.10
2022-09-22T21:27:48.060Z,11.20
2022-09-22T21:30:16.192Z,11.10
2022-09-22T21:32:46.081Z,11.00
2022-09-22T21:35:17.004Z,11.00
2022-09-22T21:37:45.598Z,11.10
2022-09-22T21:40:13.859Z,11.10
2022-09-22T21:42:41.902Z,11.20
2022-09-22T21:45:11.071Z,11.10
2022-09-22T21:47:39.049Z,11.10
2022-09-22T21:50:08.608Z,11.10
2022-09-22T21:52:38.467Z,11.20
2022-09-22T21:55:07.938Z,11.00
2022-09-22T21:57:35.982Z,11.10
2022-09-22T22:00:06.930Z,11.10
2022-09-22T22:02:54.865Z,10.90
2022-09-22T22:05:22.848Z,10.90
2022-09-22T22:07:52.134Z,10.90
2022-09-22T22:10:20.200Z,10.90
2022-09-22T22:12:48.183Z,10.70
2022-09-22T22:15:16.391Z,10.70
2022-09-22T22:17:44.338Z,10.70
2022-09-22T22:20:12.346Z,10.80
2022-09-22T22:22:40.327Z,10.90
2022-09-22T22:25:12.591Z,10.90
2022-09-22T22:27:40.855Z,10.80
2022-09-22T22:30:11.213Z,10.80
2022-09-22T22:32:39.159Z,10.80
2022-09-22T22:35:08.218Z,10.80
2022-09-22T22:37:36.138Z,10.70
2022-09-22T22:40:04.675Z,10.70
2022-09-22T22:42:34.045Z,10.70
2022-09-22T22:45:02.013Z,10.50
2022-09-22T22:47:29.947Z,10.50
2022-09-22T22:49:57.901Z,10.40
2022-09-22T22:52:25.854Z,10.40
2022-09-22T22:54:53.810Z,10.30
2022-09-22T22:57:21.771Z,10.40
2022-09-22T22:59:51.091Z,10.60
2022-09-22T23:02:19.077Z,10.50
2022-09-22T23:04:47.066Z,10.30
2022-09-22T23:07:15.046Z,10.40
2022-09-22T23:09:43.037Z,10.20
2022-09-22T23:12:11.031Z,10.20
2022-09-22T23:14:39.292Z,10.10
2022-09-22T23:17:08.577Z,10.20
2022-09-22T23:19:36.569Z,10.10
2022-09-22T23:22:04.720Z,10.10
2022-09-22T23:24:32.681Z,10.10
2022-09-22T23:27:00.713Z,10.00
2022-09-22T23:29:28.717Z,10.10
2022-09-22T23:31:56.654Z,10.10
2022-09-22T23:34:25.953Z,10.10
2022-09-22T23:36:54.097Z,10.10
2022-09-22T23:39:22.345Z,10.10
2022-09-22T23:41:51.735Z,10.10
2022-09-22T23:44:19.707Z,10.10
2022-09-22T23:46:47.636Z,10.20
2022-09-22T23:49:15.639Z,10.20
2022-09-22T23:51:44.922Z,10.00
2022-09-22T23:54:14.101Z,9.90
2022-09-22T23:56:42.415Z,9.90
2022-09-22T23:59:10.628Z,10.10
